Time;durP1;ratioP1;P1;durP2;ratioP2;P2;SDS_P1;SDS_P2;PMS_P1;PMS_P2;Temp;Humidity;BMP_temperature;BMP_pressure;BME280_temperature;BME280_humidity;BME280_pressure;Samples;Min_cycle;Max_cycle;Signal;HPM_P1;HPM_P2
2023/01/23 00:00:30;;;;;;;4.55;2.40;;;2.70;99.90;;;;;;5034009;28;20428;-65
2023/01/23 00:02:56;;;;;;;5.60;2.83;;;2.70;99.90;;;;;;5033908;28;20481;-67
2023/01/23 00:05:22;;;;;;;5.78;2.45;;;2.80;99.90;;;;;;5033491;28;20120;-66
2023/01/23 00:07:47;;;;;;;4.53;2.67;;;2.80;99.90;;;;;;5033603;28;20065;-67
2023/01/23 00:10:13;;;;;;;9.35;3.17;;;2.80;99.90;;;;;;5033896;28;20044;-66
2023/01/23 00:12:44;;;;;;;5.55;2.70;;;2.80;99.90;;;;;;5033531;28;20049;-67
2023/01/23 00:15:11;;;;;;;5.90;2.95;;;2.80;99.90;;;;;;5015767;28;20171;-67
2023/01/23 00:17:39;;;;;;;4.80;2.80;;;3.20;99.90;;;;;;5033703;28;20041;-66
2023/01/23 00:20:05;;;;;;;4.97;2.53;;;2.80;99.90;;;;;;5033696;28;20442;-66
2023/01/23 00:22:31;;;;;;;6.97;2.75;;;2.80;99.90;;;;;;5033566;28;20400;-66
2023/01/23 00:24:56;;;;;;;6.45;2.67;;;2.80;99.90;;;;;;5033406;28;20045;-66
2023/01/23 00:27:22;;;;;;;6.38;3.33;;;2.80;99.90;;;;;;5033453;28;20503;-66
2023/01/23 00:29:50;;;;;;;6.38;2.80;;;2.80;99.90;;;;;;5033470;28;20038;-67
2023/01/23 00:32:16;;;;;;;5.03;2.60;;;2.80;99.90;;;;;;5033123;28;20040;-66
2023/01/23 00:34:42;;;;;;;8.43;3.30;;;2.90;99.90;;;;;;5033127;28;20440;-66
2023/01/23 00:37:07;;;;;;;4.03;2.83;;;2.80;99.90;;;;;;5015734;28;20083;-66
2023/01/23 00:39:33;;;;;;;6.00;3.15;;;2.80;99.90;;;;;;5015409;28;20041;-65
2023/01/23 00:41:59;;;;;;;5.82;3.00;;;2.80;99.90;;;;;;5032923;28;20114;-65
2023/01/23 00:44:25;;;;;;;8.32;2.88;;;2.80;99.90;;;;;;5031990;28;20084;-65
2023/01/23 00:46:50;;;;;;;6.88;2.90;;;2.80;99.90;;;;;;5033138;28;20041;-66
2023/01/23 00:49:16;;;;;;;2.72;2.05;;;2.80;99.90;;;;;;5015162;28;20034;-66
2023/01/23 00:51:43;;;;;;;7.15;2.88;;;2.80;99.90;;;;;;5033167;28;20040;-66
2023/01/23 00:54:08;;;;;;;4.53;2.30;;;2.80;99.90;;;;;;5015028;28;20461;-66
2023/01/23 00:56:34;;;;;;;6.75;2.75;;;2.80;99.90;;;;;;5015134;28;20116;-66
2023/01/23 00:59:00;;;;;;;5.90;2.63;;;2.80;99.90;;;;;;5033097;28;20473;-66
2023/01/23 01:01:26;;;;;;;4.05;2.47;;;2.80;99.90;;;;;;5032772;28;20038;-66
2023/01/23 01:03:52;;;;;;;4.20;2.25;;;2.80;99.90;;;;;;5015144;28;20041;-66
2023/01/23 01:06:18;;;;;;;3.95;2.17;;;2.80;99.90;;;;;;5014891;28;20174;-66
2023/01/23 01:08:43;;;;;;;4.32;2.25;;;4.20;99.90;;;;;;5014812;28;20061;-65
2023/01/23 01:11:09;;;;;;;4.30;2.50;;;2.80;99.90;;;;;;5014903;28;20440;-65
2023/01/23 01:13:35;;;;;;;4.03;2.38;;;2.80;99.90;;;;;;5032863;28;20041;-66
2023/01/23 01:16:00;;;;;;;2.85;1.83;;;2.80;99.90;;;;;;5032820;28;20052;-66
2023/01/23 01:18:27;;;;;;;7.97;2.72;;;2.80;99.90;;;;;;5032555;28;20053;-65
2023/01/23 01:20:53;;;;;;;5.80;2.20;;;2.80;99.90;;;;;;5032801;28;20076;-66
2023/01/23 01:23:19;;;;;;;8.40;2.42;;;2.80;99.90;;;;;;5032430;28;20053;-65
2023/01/23 01:25:45;;;;;;;5.72;2.22;;;2.80;99.90;;;;;;5015006;28;20042;-66
2023/01/23 01:28:10;;;;;;;6.22;2.30;;;2.80;99.90;;;;;;5014748;28;20029;-67
2023/01/23 01:30:36;;;;;;;3.78;2.00;;;2.80;99.90;;;;;;5032513;28;20037;-66
2023/01/23 01:33:03;;;;;;;5.93;2.17;;;2.80;99.90;;;;;;5032729;28;20384;-66
2023/01/23 01:35:28;;;;;;;3.65;2.10;;;2.70;99.90;;;;;;5032370;28;20099;-66
2023/01/23 01:37:54;;;;;;;5.18;2.00;;;2.80;99.90;;;;;;5032693;28;20041;-66
2023/01/23 01:40:30;;;;;;;8.98;3.30;;;2.70;99.90;;;;;;5032645;28;20044;-66
2023/01/23 01:42:59;;;;;;;5.60;2.60;;;2.70;99.90;;;;;;5032352;28;20096;-67
2023/01/23 01:46:02;;;;;;;3.17;1.85;;;2.70;99.90;;;;;;5032544;28;20091;-66
2023/01/23 01:48:37;;;;;;;2.40;1.88;;;2.70;99.90;;;;;;5014587;28;20049;-67
2023/01/23 01:51:29;;;;;;;8.98;3.13;;;2.70;99.90;;;;;;5032497;28;20079;-66
2023/01/23 01:54:21;;;;;;;3.10;2.17;;;2.70;99.90;;;;;;5003989;28;20132;-66
2023/01/23 01:57:03;;;;;;;5.05;2.60;;;2.70;99.90;;;;;;5016565;28;20045;-66
2023/01/23 01:59:32;;;;;;;5.25;2.58;;;2.70;99.90;;;;;;5036235;28;20045;-66
2023/01/23 02:02:03;;;;;;;6.47;2.70;;;2.70;99.90;;;;;;5036246;28;20443;-66
2023/01/23 02:04:31;;;;;;;6.55;3.00;;;2.70;99.90;;;;;;5018166;28;20103;-67
2023/01/23 02:06:58;;;;;;;5.40;2.40;;;2.70;99.90;;;;;;5035839;28;20048;-66
2023/01/23 02:09:25;;;;;;;5.57;2.75;;;2.70;99.90;;;;;;5036129;28;20460;-66
2023/01/23 02:11:51;;;;;;;4.65;2.45;;;2.70;99.90;;;;;;5035879;28;20041;-67
2023/01/23 02:14:17;;;;;;;4.80;2.45;;;2.70;99.90;;;;;;5018000;28;20107;-66
2023/01/23 02:16:49;;;;;;;3.88;2.45;;;2.70;99.90;;;;;;5017991;28;20084;-66
2023/01/23 02:19:29;;;;;;;;;;;2.70;99.90;;;;;;5036306;28;20404;-66
2023/01/23 02:22:05;;;;;;;7.05;2.55;;;2.70;99.90;;;;;;5017838;28;19923;-66
2023/01/23 02:24:39;;;;;;;12.00;2.92;;;2.70;99.90;;;;;;5035699;28;20052;-67
2023/01/23 02:27:05;;;;;;;3.83;2.25;;;2.70;99.90;;;;;;5035817;28;20493;-66
2023/01/23 02:29:44;;;;;;;5.30;2.65;;;2.70;99.90;;;;;;5036025;28;20086;-66
2023/01/23 02:32:10;;;;;;;6.65;2.97;;;2.70;99.90;;;;;;5035715;28;20124;-66
2023/01/23 02:34:36;;;;;;;3.90;2.25;;;2.70;99.90;;;;;;5035661;28;20033;-67
2023/01/23 02:37:04;;;;;;;4.85;2.67;;;2.70;99.90;;;;;;5017587;28;20539;-66
2023/01/23 02:39:30;;;;;;;4.70;2.63;;;2.70;99.90;;;;;;5017408;28;20100;-66
2023/01/23 02:41:56;;;;;;;4.68;2.78;;;2.70;99.90;;;;;;5035507;28;20041;-66
2023/01/23 02:44:26;;;;;;;7.38;3.20;;;2.70;99.90;;;;;;5035140;28;20037;-66
2023/01/23 02:46:53;;;;;;;6.72;3.30;;;2.70;99.90;;;;;;5035454;28;20045;-67
2023/01/23 02:49:20;;;;;;;7.15;2.45;;;2.70;99.90;;;;;;5035423;28;20041;-67
2023/01/23 02:51:47;;;;;;;5.18;2.60;;;2.80;99.90;;;;;;5017288;28;20103;-67
2023/01/23 02:54:13;;;;;;;5.28;2.90;;;2.70;99.90;;;;;;5017523;28;20541;-67
2023/01/23 02:56:38;;;;;;;14.30;3.50;;;2.70;99.90;;;;;;5034865;28;20133;-66
2023/01/23 03:01:48;;;;;;;4.78;2.78;;;2.70;99.90;;;;;;5035108;28;20041;-67
2023/01/23 03:04:14;;;;;;;3.72;2.38;;;2.70;99.90;;;;;;5035059;28;20056;-66
2023/01/23 03:06:39;;;;;;;7.88;2.78;;;2.70;99.90;;;;;;5035100;28;20558;-66
2023/01/23 03:09:09;;;;;;;5.25;2.90;;;2.70;99.90;;;;;;5033558;28;20053;-66
2023/01/23 03:11:37;;;;;;;4.93;2.47;;;2.70;99.90;;;;;;5034770;28;20038;-66
2023/01/23 03:14:03;;;;;;;5.70;2.78;;;2.70;99.90;;;;;;5034572;28;20037;-66
2023/01/23 03:16:29;;;;;;;5.18;3.35;;;2.70;99.90;;;;;;5034872;28;20381;-66
2023/01/23 03:18:56;;;;;;;5.07;2.78;;;2.70;99.90;;;;;;5034754;28;20052;-66
2023/01/23 03:21:22;;;;;;;9.40;2.88;;;2.70;99.90;;;;;;5017092;28;20116;-66
2023/01/23 03:23:47;;;;;;;5.05;2.55;;;2.70;99.90;;;;;;5034732;28;20175;-66
2023/01/23 03:26:13;;;;;;;7.07;2.67;;;2.70;99.90;;;;;;5016514;28;20041;-66
2023/01/23 03:31:23;;;;;;;6.90;2.55;;;2.60;99.90;;;;;;5034254;28;20042;-66
2023/01/23 03:33:49;;;;;;;4.10;2.40;;;2.70;99.90;;;;;;5034480;28;20033;-66
2023/01/23 03:36:15;;;;;;;6.00;3.22;;;2.70;99.90;;;;;;5034257;28;20038;-66
2023/01/23 03:41:23;;;;;;;5.15;2.60;;;2.70;99.90;;;;;;5016428;28;20052;-67
2023/01/23 03:41:26;;;;;;;4.20;2.60;;;2.60;99.90;;;;;;5034034;28;20049;-66
2023/01/23 03:43:52;;;;;;;7.07;3.28;;;2.60;99.90;;;;;;5016575;28;20048;-66
2023/01/23 03:46:18;;;;;;;5.80;2.90;;;2.70;99.90;;;;;;5034258;28;20045;-67
2023/01/23 03:48:43;;;;;;;6.45;2.80;;;2.70;99.90;;;;;;5034184;28;20073;-66
2023/01/23 03:51:09;;;;;;;4.32;2.70;;;2.70;99.90;;;;;;5034167;28;20043;-66
2023/01/23 03:53:35;;;;;;;4.55;2.80;;;2.70;99.90;;;;;;5016191;28;20420;-66
2023/01/23 03:56:00;;;;;;;6.85;2.80;;;2.60;99.90;;;;;;5016096;28;20033;-66
2023/01/23 03:58:26;;;;;;;9.00;2.85;;;2.60;99.90;;;;;;5015942;28;20053;-66
2023/01/23 04:00:52;;;;;;;4.45;2.40;;;2.70;99.90;;;;;;5033948;28;20069;-66
2023/01/23 04:03:18;;;;;;;9.90;3.13;;;2.70;99.90;;;;;;5033940;28;20044;-66
2023/01/23 04:05:43;;;;;;;5.10;2.38;;;2.60;99.90;;;;;;5033515;28;20092;-67
2023/01/23 04:08:09;;;;;;;4.65;2.63;;;2.60;99.90;;;;;;5033541;28;20124;-66
2023/01/23 04:10:35;;;;;;;4.10;2.55;;;2.70;99.90;;;;;;5033943;28;20037;-66
2023/01/23 04:13:00;;;;;;;7.97;2.80;;;2.60;99.90;;;;;;5033738;28;20037;-66
2023/01/23 04:15:26;;;;;;;9.27;3.15;;;2.60;99.90;;;;;;5033463;28;20048;-66
2023/01/23 04:17:52;;;;;;;4.82;2.83;;;2.60;99.90;;;;;;5033659;28;20033;-66
2023/01/23 04:20:17;;;;;;;6.07;3.00;;;2.60;99.90;;;;;;5033543;28;20144;-66
2023/01/23 04:22:43;;;;;;;7.38;3.38;;;2.60;99.90;;;;;;5033272;28;20049;-65
2023/01/23 04:25:09;;;;;;;8.93;3.05;;;2.60;99.90;;;;;;5033511;28;20034;-66
2023/01/23 04:27:34;;;;;;;6.65;3.00;;;2.60;99.90;;;;;;5033623;28;20048;-67
2023/01/23 04:30:00;;;;;;;6.38;3.17;;;2.60;99.90;;;;;;5033428;28;20037;-66
2023/01/23 04:32:25;;;;;;;8.00;2.90;;;2.60;99.90;;;;;;5033476;28;20030;-67
2023/01/23 04:34:51;;;;;;;5.90;2.40;;;2.60;99.90;;;;;;5015367;28;20095;-67
2023/01/23 04:37:17;;;;;;;6.90;2.50;;;2.60;99.90;;;;;;5033447;28;20124;-66
2023/01/23 04:39:43;;;;;;;5.00;3.38;;;2.60;99.90;;;;;;5033291;28;20033;-66
2023/01/23 04:42:08;;;;;;;6.32;2.97;;;2.60;99.90;;;;;;5033410;28;20056;-66
2023/01/23 04:44:34;;;;;;;5.85;2.75;;;2.60;99.90;;;;;;5033192;28;20084;-66
2023/01/23 04:47:00;;;;;;;4.93;3.10;;;2.60;99.90;;;;;;5033231;28;20029;-66
2023/01/23 04:49:25;;;;;;;6.10;2.60;;;2.60;99.90;;;;;;5015194;28;20443;-66
2023/01/23 04:51:52;;;;;;;4.70;2.83;;;2.60;99.90;;;;;;5033081;28;20038;-66
2023/01/23 04:54:19;;;;;;;5.93;2.58;;;2.60;99.90;;;;;;5033098;28;20120;-66
2023/01/23 04:56:45;;;;;;;6.18;3.55;;;2.60;99.90;;;;;;5032749;28;20041;-66
2023/01/23 04:59:11;;;;;;;5.40;2.53;;;2.60;99.90;;;;;;5033029;28;20087;-66
2023/01/23 05:01:37;;;;;;;4.55;2.75;;;2.60;99.90;;;;;;5032976;28;20493;-66
2023/01/23 05:04:03;;;;;;;11.07;3.13;;;2.60;99.90;;;;;;5032951;28;20045;-66
2023/01/23 05:06:28;;;;;;;4.18;2.63;;;2.60;99.90;;;;;;5032944;28;20500;-66
2023/01/23 05:08:54;;;;;;;7.15;3.15;;;2.60;99.90;;;;;;5032567;28;20496;-66
2023/01/23 05:11:20;;;;;;;4.15;2.88;;;2.60;99.90;;;;;;5015291;28;20048;-66
2023/01/23 05:13:45;;;;;;;6.28;3.00;;;2.60;99.90;;;;;;5032980;28;20038;-66
2023/01/23 05:16:11;;;;;;;5.15;2.75;;;2.60;99.90;;;;;;5032658;28;20049;-66
2023/01/23 05:18:37;;;;;;;8.35;2.40;;;2.60;99.90;;;;;;5032901;28;20512;-66
2023/01/23 05:21:02;;;;;;;6.18;2.75;;;2.60;99.90;;;;;;5032778;28;20481;-66
2023/01/23 05:23:28;;;;;;;7.13;2.97;;;2.70;99.90;;;;;;5032824;28;20124;-67
2023/01/23 05:25:54;;;;;;;6.13;3.22;;;2.60;99.90;;;;;;5014758;28;20561;-66
2023/01/23 05:28:19;;;;;;;6.30;3.22;;;2.60;99.90;;;;;;5015150;28;20049;-66
2023/01/23 05:30:45;;;;;;;4.50;2.78;;;2.60;99.90;;;;;;5033251;28;20040;-66
2023/01/23 05:33:11;;;;;;;4.88;2.42;;;2.60;99.90;;;;;;5036752;28;20603;-66
2023/01/23 05:35:38;;;;;;;7.18;3.08;;;2.60;99.90;;;;;;5002775;28;20041;-66
2023/01/23 05:38:04;;;;;;;4.80;2.58;;;2.60;99.90;;;;;;5036408;28;20045;-66
2023/01/23 05:40:29;;;;;;;5.40;3.00;;;2.80;99.90;;;;;;5036363;28;20041;-66
2023/01/23 05:42:55;;;;;;;6.70;3.78;;;2.60;99.90;;;;;;5018553;28;20041;-66
2023/01/23 05:45:21;;;;;;;5.20;2.38;;;3.40;99.90;;;;;;5036122;28;20038;-66
2023/01/23 05:47:46;;;;;;;6.72;3.10;;;2.60;99.90;;;;;;5036553;28;20041;-66
2023/01/23 05:50:18;;;;;;;5.32;2.92;;;2.60;99.90;;;;;;5036480;28;20419;-66
2023/01/23 05:52:45;;;;;;;8.00;3.00;;;2.60;99.90;;;;;;5036623;28;20041;-66
2023/01/23 05:55:11;;;;;;;3.75;3.00;;;2.60;99.90;;;;;;5036403;28;20487;-67
2023/01/23 05:57:36;;;;;;;5.03;2.88;;;2.60;99.90;;;;;;5036441;28;20038;-66
2023/01/23 06:00:04;;;;;;;4.60;2.42;;;2.60;99.90;;;;;;5018332;28;20055;-66
2023/01/23 06:02:29;;;;;;;6.63;2.97;;;2.60;99.90;;;;;;5035966;28;20041;-66
2023/01/23 06:04:55;;;;;;;5.35;2.17;;;2.60;99.90;;;;;;5035879;28;20045;-66
2023/01/23 06:07:20;;;;;;;4.65;2.75;;;2.60;99.90;;;;;;5035996;28;20034;-66
2023/01/23 06:09:46;;;;;;;4.90;2.97;;;2.60;99.90;;;;;;5001607;28;20569;-66
2023/01/23 06:12:12;;;;;;;7.63;3.22;;;2.50;99.90;;;;;;5036081;28;20033;-66
2023/01/23 06:14:38;;;;;;;6.03;2.80;;;2.60;99.90;;;;;;5018362;28;20116;-66
2023/01/23 06:17:04;;;;;;;4.35;2.47;;;2.50;99.90;;;;;;5035682;28;20042;-65
2023/01/23 06:19:29;;;;;;;4.68;2.75;;;2.50;99.90;;;;;;5035975;28;20050;-66
2023/01/23 06:21:55;;;;;;;5.30;2.47;;;2.50;99.90;;;;;;5035865;28;20370;-66
2023/01/23 06:24:21;;;;;;;5.75;3.60;;;2.50;99.90;;;;;;5017778;28;20037;-66
2023/01/23 06:26:46;;;;;;;5.30;3.00;;;2.50;99.90;;;;;;5035821;28;20125;-66
2023/01/23 06:29:12;;;;;;;5.78;2.47;;;2.40;99.90;;;;;;5035781;28;20029;-67
2023/01/23 06:31:37;;;;;;;6.20;2.78;;;2.50;99.90;;;;;;5035680;28;20091;-66
2023/01/23 06:34:03;;;;;;;5.70;3.58;;;2.50;99.90;;;;;;5017730;28;20040;-67
2023/01/23 06:36:29;;;;;;;4.68;2.40;;;2.40;99.90;;;;;;5035373;28;20542;-66
2023/01/23 06:38:55;;;;;;;4.45;2.72;;;2.50;99.90;;;;;;5035655;28;20041;-67
2023/01/23 06:41:20;;;;;;;4.95;2.47;;;2.40;99.90;;;;;;5035553;28;20064;-66
2023/01/23 06:43:46;;;;;;;6.93;2.72;;;2.50;99.90;;;;;;5035538;28;20393;-66
2023/01/23 06:46:12;;;;;;;5.60;2.88;;;2.40;99.90;;;;;;5035133;28;20041;-67
2023/01/23 06:48:38;;;;;;;4.68;3.03;;;2.50;99.90;;;;;;5035101;28;20060;-66
2023/01/23 06:51:04;;;;;;;6.80;3.05;;;2.50;99.90;;;;;;5035424;28;20037;-67
2023/01/23 06:53:30;;;;;;;5.32;2.35;;;2.50;99.90;;;;;;5035389;28;20182;-66
2023/01/23 06:56:00;;;;;;;5.80;3.45;;;2.50;99.90;;;;;;5035275;28;20082;-69
2023/01/23 06:58:26;;;;;;;5.43;2.72;;;2.50;99.90;;;;;;5035051;28;20119;-65
2023/01/23 07:00:52;;;;;;;3.72;2.38;;;2.50;99.90;;;;;;5034982;28;20069;-66
2023/01/23 07:03:17;;;;;;;7.38;2.83;;;2.50;99.90;;;;;;5035192;28;20109;-66
2023/01/23 07:05:43;;;;;;;5.45;2.60;;;2.50;99.90;;;;;;5035058;28;20120;-66
2023/01/23 07:08:09;;;;;;;8.30;2.80;;;2.50;99.90;;;;;;5016885;28;20053;-66
2023/01/23 07:10:36;;;;;;;4.80;3.00;;;2.50;99.90;;;;;;5017386;28;20049;-66
2023/01/23 07:13:06;;;;;;;8.27;2.72;;;2.50;99.90;;;;;;5016833;28;20099;-65
2023/01/23 07:15:33;;;;;;;3.95;2.50;;;2.50;99.90;;;;;;5016953;28;20049;-66
2023/01/23 07:17:59;;;;;;;6.80;3.47;;;2.50;99.90;;;;;;5034694;28;20034;-66
2023/01/23 07:20:26;;;;;;;9.20;2.90;;;2.50;99.90;;;;;;5034913;28;20038;-66
2023/01/23 07:22:55;;;;;;;3.90;2.55;;;2.50;99.90;;;;;;5034747;28;20088;-67
2023/01/23 07:25:21;;;;;;;6.60;2.90;;;2.50;99.90;;;;;;5034735;28;20459;-67
2023/01/23 07:27:47;;;;;;;4.28;2.50;;;2.50;99.90;;;;;;5034774;28;20025;-66
2023/01/23 07:30:13;;;;;;;5.72;3.30;;;2.50;99.90;;;;;;5034734;28;20037;-66
2023/01/23 07:32:39;;;;;;;4.47;2.63;;;2.50;99.90;;;;;;5034655;28;20034;-67
2023/01/23 07:35:06;;;;;;;6.55;2.97;;;2.60;99.90;;;;;;5034588;28;20540;-66
2023/01/23 07:37:31;;;;;;;4.63;2.75;;;2.50;99.90;;;;;;5000415;28;20099;-66
2023/01/23 07:39:57;;;;;;;4.45;2.38;;;2.50;99.90;;;;;;5034183;28;20424;-66
2023/01/23 07:42:23;;;;;;;4.35;2.85;;;2.60;99.90;;;;;;5034486;28;20385;-66
2023/01/23 07:44:48;;;;;;;7.68;3.38;;;2.50;99.90;;;;;;5034275;28;20050;-65
2023/01/23 07:47:14;;;;;;;3.75;2.30;;;2.50;99.90;;;;;;5034103;28;20399;-66
2023/01/23 07:49:40;;;;;;;5.25;2.88;;;2.50;99.90;;;;;;5034331;28;20033;-66
2023/01/23 07:52:05;;;;;;;6.63;3.10;;;2.60;99.90;;;;;;5034211;28;20477;-66
2023/01/23 07:54:31;;;;;;;3.75;2.58;;;2.60;99.90;;;;;;5033723;28;20496;-66
2023/01/23 07:56:57;;;;;;;4.72;2.30;;;2.60;99.90;;;;;;5034200;28;20034;-66
2023/01/23 07:59:22;;;;;;;6.68;2.97;;;2.60;99.90;;;;;;5034148;28;20053;-66
2023/01/23 08:01:50;;;;;;;10.98;2.88;;;2.60;99.90;;;;;;5033954;28;20081;-66
2023/01/23 08:04:15;;;;;;;7.00;2.78;;;2.60;99.90;;;;;;5033946;28;20049;-66
2023/01/23 08:06:41;;;;;;;4.07;2.60;;;2.60;99.90;;;;;;5033559;28;20045;-67
2023/01/23 08:09:06;;;;;;;6.43;2.83;;;3.00;99.90;;;;;;5012676;28;20081;-66
2023/01/23 08:11:32;;;;;;;4.75;2.40;;;2.60;99.90;;;;;;5014134;28;20064;-66
2023/01/23 08:13:58;;;;;;;5.15;2.85;;;2.60;99.90;;;;;;5012926;28;20069;-66
2023/01/23 08:16:23;;;;;;;6.00;3.08;;;2.60;99.90;;;;;;5014089;28;20033;-65
2023/01/23 08:18:49;;;;;;;8.88;2.83;;;2.60;99.90;;;;;;5012484;28;20037;-66
2023/01/23 08:21:15;;;;;;;4.45;2.53;;;2.60;99.90;;;;;;5013666;28;20038;-66
2023/01/23 08:23:40;;;;;;;4.05;2.78;;;3.10;99.90;;;;;;5013970;28;20088;-66
2023/01/23 08:26:07;;;;;;;4.70;2.15;;;2.70;99.90;;;;;;5014091;28;20544;-66
2023/01/23 08:28:34;;;;;;;7.07;2.58;;;2.70;99.90;;;;;;5013645;28;20083;-66
2023/01/23 08:31:06;;;;;;;7.18;2.38;;;2.70;99.90;;;;;;5012383;28;20456;-66
2023/01/23 08:33:33;;;;;;;4.97;2.78;;;2.70;99.90;;;;;;5012194;28;20045;-66
2023/01/23 08:35:59;;;;;;;3.38;1.90;;;2.70;99.90;;;;;;5013780;28;20509;-66
2023/01/23 08:38:25;;;;;;;3.30;2.40;;;2.70;99.90;;;;;;5012201;28;20049;-66
2023/01/23 08:40:52;;;;;;;3.42;2.35;;;2.80;99.90;;;;;;5012143;28;20050;-66
2023/01/23 08:43:19;;;;;;;5.13;2.20;;;2.80;99.90;;;;;;5013723;28;20038;-66
2023/01/23 08:45:49;;;;;;;6.03;2.75;;;2.80;99.90;;;;;;5013517;28;20531;-65
2023/01/23 08:48:15;;;;;;;5.35;2.63;;;2.80;99.90;;;;;;5013616;28;20048;-66
2023/01/23 08:50:41;;;;;;;6.60;2.70;;;2.90;99.90;;;;;;5013628;28;20034;-66
2023/01/23 08:53:07;;;;;;;7.63;3.22;;;2.90;99.90;;;;;;5012244;28;20071;-67
2023/01/23 08:55:34;;;;;;;6.72;3.40;;;2.90;99.90;;;;;;5013542;28;20042;-66
2023/01/23 08:58:01;;;;;;;7.75;3.03;;;2.90;99.90;;;;;;5011953;28;20053;-66
2023/01/23 09:00:27;;;;;;;7.25;3.38;;;3.00;99.90;;;;;;5013155;28;20107;-67
2023/01/23 09:02:52;;;;;;;5.40;2.78;;;3.00;99.90;;;;;;5013069;28;20463;-67
2023/01/23 09:05:18;;;;;;;5.78;2.50;;;3.00;99.90;;;;;;5011098;28;20064;-65
2023/01/23 09:07:43;;;;;;;5.65;2.80;;;3.10;99.90;;;;;;5015342;28;20038;-67
2023/01/23 09:10:10;;;;;;;4.00;2.53;;;3.10;99.90;;;;;;5014976;28;20549;-66
2023/01/23 09:12:35;;;;;;;6.30;2.50;;;3.20;99.90;;;;;;5032961;28;20037;-67
2023/01/23 09:15:01;;;;;;;4.40;2.00;;;3.20;99.90;;;;;;5033004;28;20091;-66
2023/01/23 09:17:26;;;;;;;3.72;2.20;;;3.20;99.90;;;;;;5032958;28;20431;-67
2023/01/23 09:19:52;;;;;;;4.85;2.58;;;3.20;99.90;;;;;;5032498;28;20159;-67
2023/01/23 09:22:18;;;;;;;4.78;2.35;;;3.20;99.90;;;;;;5032584;28;20049;-68
2023/01/23 09:24:44;;;;;;;4.72;2.35;;;3.30;99.90;;;;;;4998693;28;20043;-68
2023/01/23 09:27:10;;;;;;;4.40;2.40;;;3.30;99.90;;;;;;5032618;28;20041;-66
2023/01/23 09:29:36;;;;;;;4.65;2.60;;;3.40;99.90;;;;;;5032801;28;20424;-66
2023/01/23 09:32:02;;;;;;;6.93;2.67;;;3.40;99.90;;;;;;5032686;28;20038;-66
2023/01/23 09:34:28;;;;;;;5.80;2.92;;;3.80;99.90;;;;;;5015170;28;20479;-66
2023/01/23 09:36:54;;;;;;;3.28;2.47;;;3.50;99.90;;;;;;5014812;28;20099;-66
2023/01/23 09:39:20;;;;;;;5.47;2.63;;;3.50;99.90;;;;;;5032741;28;20038;-66
2023/01/23 09:41:47;;;;;;;6.50;2.55;;;3.50;99.90;;;;;;5032711;28;20037;-64
2023/01/23 09:44:20;;;;;;;4.40;2.45;;;3.50;99.90;;;;;;5032392;28;20482;-66
2023/01/23 09:46:54;;;;;;;5.03;2.45;;;3.50;99.90;;;;;;5014593;28;20049;-66
2023/01/23 09:49:59;;;;;;;4.90;2.40;;;3.60;99.90;;;;;;5032679;28;20045;-66
2023/01/23 09:52:32;;;;;;;4.50;1.90;;;3.60;99.90;;;;;;5032587;28;20461;-66
2023/01/23 09:55:12;;;;;;;5.80;3.08;;;3.60;99.90;;;;;;5032496;28;20037;-66
2023/01/23 09:58:02;;;;;;;4.35;2.60;;;3.60;99.90;;;;;;5032483;28;20143;-66
2023/01/23 10:00:32;;;;;;;3.85;1.98;;;3.60;99.90;;;;;;5032501;28;20045;-66
2023/01/23 10:03:09;;;;;;;6.25;2.50;;;3.60;99.90;;;;;;5032464;28;20051;-66
2023/01/23 10:06:03;;;;;;;5.97;2.92;;;3.60;99.90;;;;;;5032419;28;20052;-66
2023/01/23 10:08:36;;;;;;;6.35;2.83;;;3.60;99.90;;;;;;5032157;28;20057;-66
2023/01/23 10:11:17;;;;;;;6.50;2.78;;;3.70;99.90;;;;;;5032362;28;20104;-65
2023/01/23 10:14:01;;;;;;;4.50;2.70;;;3.70;99.90;;;;;;5032329;28;20123;-66
2023/01/23 10:16:52;;;;;;;3.42;2.40;;;3.70;99.90;;;;;;5032326;28;20509;-65
2023/01/23 10:19:37;;;;;;;5.55;2.90;;;3.70;99.90;;;;;;5024835;28;20097;-66
2023/01/23 10:22:17;;;;;;;6.43;2.45;;;3.70;99.90;;;;;;5035932;28;20099;-66
2023/01/23 10:24:50;;;;;;;3.38;2.42;;;3.70;99.90;;;;;;5017907;28;20041;-67
2023/01/23 10:27:29;;;;;;;4.68;2.63;;;3.70;99.90;;;;;;5035673;28;20481;-66
2023/01/23 10:30:01;;;;;;;6.00;2.80;;;3.80;99.90;;;;;;5035859;28;20129;-66
2023/01/23 10:32:29;;;;;;;3.80;2.35;;;3.80;99.90;;;;;;5017705;28;20447;-66
2023/01/23 10:35:09;;;;;;;7.57;2.53;;;3.80;99.90;;;;;;5035740;28;20067;-66
2023/01/23 10:37:56;;;;;;;4.15;2.80;;;3.80;99.90;;;;;;5018030;28;20096;-66
2023/01/23 10:43:25;;;;;;;4.57;2.80;;;3.90;99.90;;;;;;5035227;28;20046;-66
2023/01/23 10:45:51;;;;;;;8.40;2.50;;;3.80;99.90;;;;;;5035492;28;20042;-66
2023/01/23 10:48:27;;;;;;;6.07;2.83;;;3.90;99.90;;;;;;5035494;28;20477;-66
2023/01/23 10:50:54;;;;;;;9.73;3.85;;;3.90;99.90;;;;;;5035415;28;20040;-66
2023/01/23 10:53:20;;;;;;;5.43;2.90;;;3.90;99.90;;;;;;5017644;28;20037;-66
2023/01/23 10:55:48;;;;;;;6.18;2.78;;;3.90;99.90;;;;;;5035319;28;20042;-66
2023/01/23 10:58:38;;;;;;;8.82;3.30;;;3.90;99.90;;;;;;5017283;28;20056;-66
2023/01/23 11:01:06;;;;;;;6.38;3.42;;;3.90;99.90;;;;;;5017525;28;20080;-66
2023/01/23 11:03:34;;;;;;;5.38;2.72;;;3.90;99.90;;;;;;5035290;28;20068;-65
2023/01/23 11:06:08;;;;;;;6.20;2.85;;;4.00;99.90;;;;;;5034858;28;20037;-66
2023/01/23 11:08:48;;;;;;;6.45;2.95;;;4.00;99.90;;;;;;5034835;28;20095;-66
2023/01/23 11:11:14;;;;;;;5.95;3.17;;;3.90;99.90;;;;;;5035029;28;20439;-66
2023/01/23 11:13:44;;;;;;;8.20;3.50;;;4.00;99.90;;;;;;5035022;28;20045;-66
2023/01/23 11:16:18;;;;;;;5.93;2.75;;;4.00;99.90;;;;;;5035006;28;20500;-65
2023/01/23 11:19:07;;;;;;;6.40;3.45;;;4.10;99.90;;;;;;5034853;28;20049;-66
2023/01/23 11:21:49;;;;;;;12.15;3.95;;;4.10;99.90;;;;;;5034905;28;20048;-66
2023/01/23 11:24:31;;;;;;;8.65;3.28;;;4.10;99.90;;;;;;5016774;28;20462;-66
2023/01/23 11:27:09;;;;;;;7.60;3.50;;;4.10;99.90;;;;;;5034786;28;20085;-66
2023/01/23 11:30:05;;;;;;;5.22;2.70;;;4.10;99.90;;;;;;5033550;28;20033;-66
2023/01/23 11:32:40;;;;;;;6.57;3.28;;;4.10;99.90;;;;;;5034607;28;20473;-66
2023/01/23 11:35:19;;;;;;;5.70;2.63;;;4.10;99.90;;;;;;5034610;28;20508;-66
2023/01/23 11:37:45;;;;;;;6.75;3.53;;;4.10;99.90;;;;;;5034263;28;20044;-66
2023/01/23 11:40:16;;;;;;;5.40;2.53;;;4.10;99.90;;;;;;5034157;28;20037;-66
2023/01/23 11:42:42;;;;;;;9.17;3.07;;;4.10;99.90;;;;;;5034445;28;20042;-66
2023/01/23 11:45:15;;;;;;;5.03;2.95;;;4.00;99.90;;;;;;5033921;28;20124;-66
2023/01/23 11:47:57;;;;;;;6.10;3.38;;;4.00;99.90;;;;;;5034385;28;20511;-66
2023/01/23 11:50:54;;;;;;;5.55;3.15;;;4.00;99.90;;;;;;5034020;28;20579;-66
2023/01/23 11:53:57;;;;;;;5.53;3.50;;;4.00;99.90;;;;;;5034208;28;20037;-66
2023/01/23 11:56:59;;;;;;;5.57;2.85;;;4.00;99.90;;;;;;5024648;28;20111;-65
2023/01/23 11:59:53;;;;;;;8.00;3.40;;;4.00;99.90;;;;;;5016421;28;20049;-65
2023/01/23 12:02:45;;;;;;;6.28;3.25;;;4.00;99.90;;;;;;5002997;28;20335;-65
2023/01/23 12:05:23;;;;;;;12.63;4.07;;;4.00;99.90;;;;;;5033965;28;20041;-65
2023/01/23 12:08:11;;;;;;;7.70;3.33;;;4.00;99.90;;;;;;5033571;28;20521;-65
2023/01/23 12:11:09;;;;;;;6.43;3.53;;;4.00;99.90;;;;;;5034022;28;20456;-66
2023/01/23 12:13:59;;;;;;;6.90;3.70;;;4.00;99.90;;;;;;5016251;28;20049;-65
2023/01/23 12:16:52;;;;;;;8.90;3.83;;;4.10;99.90;;;;;;5033808;28;20052;-65
2023/01/23 12:19:26;;;;;;;5.45;2.88;;;4.10;99.90;;;;;;5033422;28;20161;-65
2023/01/23 12:22:32;;;;;;;7.68;3.40;;;4.10;99.90;;;;;;5033664;28;20345;-66
2023/01/23 12:25:18;;;;;;;6.80;3.40;;;4.10;99.90;;;;;;5025043;28;20053;-66
2023/01/23 12:27:47;;;;;;;7.50;3.58;;;4.10;99.90;;;;;;5015580;28;20540;-65
2023/01/23 12:30:24;;;;;;;9.13;3.95;;;4.10;99.90;;;;;;5033854;28;20037;-66
2023/01/23 12:33:19;;;;;;;8.07;4.13;;;4.10;99.90;;;;;;5033297;28;20045;-66
2023/01/23 12:36:14;;;;;;;5.80;3.67;;;4.00;99.90;;;;;;5033519;28;20049;-66
2023/01/23 12:38:48;;;;;;;10.32;3.72;;;4.00;99.90;;;;;;5015635;28;20079;-66
2023/01/23 12:41:57;;;;;;;8.18;4.13;;;4.00;99.90;;;;;;5033288;28;20397;-67
2023/01/23 12:44:34;;;;;;;11.60;4.35;;;4.00;99.90;;;;;;4972135;28;20055;-66
2023/01/23 12:47:14;;;;;;;9.48;4.25;;;4.00;99.90;;;;;;4972074;28;20050;-66
2023/01/23 12:49:49;;;;;;;7.32;4.20;;;4.00;99.90;;;;;;5013435;28;20412;-68
2023/01/23 12:52:40;;;;;;;15.02;5.28;;;4.00;99.90;;;;;;5033257;28;20044;-66
2023/01/23 12:55:15;;;;;;;6.82;4.25;;;4.00;99.90;;;;;;5015287;28;20048;-66
2023/01/23 12:57:50;;;;;;;7.60;3.83;;;5.80;99.90;;;;;;5032886;28;20508;-66
2023/01/23 13:00:37;;;;;;;5.50;3.47;;;3.90;99.90;;;;;;5033159;28;20034;-66
2023/01/23 13:03:35;;;;;;;8.38;3.83;;;3.90;99.90;;;;;;5015151;28;20073;-66
2023/01/23 13:06:01;;;;;;;9.45;4.05;;;3.90;99.90;;;;;;5032930;28;20401;-64
2023/01/23 13:08:50;;;;;;;9.13;3.90;;;3.90;99.90;;;;;;5032681;28;20046;-66
2023/01/23 13:11:54;;;;;;;8.82;3.83;;;3.90;99.90;;;;;;5032998;28;20037;-66
2023/01/23 13:14:22;;;;;;;11.98;3.53;;;3.90;99.90;;;;;;5032555;28;20045;-66
2023/01/23 13:16:50;;;;;;;9.38;4.05;;;3.90;99.90;;;;;;5015081;28;20531;-66
2023/01/23 13:22:16;;;;;;;11.30;4.03;;;3.90;99.90;;;;;;5032571;28;20132;-66
2023/01/23 13:25:15;;;;;;;8.23;3.60;;;4.00;99.90;;;;;;5014777;28;20045;-66